createdAt,value
2022-09-26T00:01:37.808Z,27.17
2022-09-26T00:04:08.512Z,25.33
2022-09-26T00:06:37.288Z,22.50
2022-09-26T00:09:05.691Z,22.57
2022-09-26T00:11:35.265Z,21.20
2022-09-26T00:14:08.395Z,21.97
2022-09-26T00:16:36.628Z,24.63
2022-09-26T00:19:06.064Z,23.30
2022-09-26T00:21:34.712Z,21.80
2022-09-26T00:24:04.019Z,25.30
2022-09-26T00:26:34.163Z,21.47
2022-09-26T00:29:04.565Z,23.93
2022-09-26T00:31:36.043Z,23.10
2022-09-26T00:34:04.543Z,23.83
2022-09-26T00:36:38.514Z,24.17
2022-09-26T00:39:08.552Z,23.20
2022-09-26T00:41:37.418Z,27.00
2022-09-26T00:44:43.891Z,27.33
2022-09-26T00:47:37.527Z,19.33
2022-09-26T00:50:10.633Z,23.63
2022-09-26T00:52:42.420Z,23.77
2022-09-26T00:55:14.118Z,26.03
2022-09-26T00:57:47.499Z,23.20
2022-09-26T01:00:16.293Z,25.67
2022-09-26T01:02:47.757Z,23.30
2022-09-26T01:05:19.662Z,24.47
2022-09-26T01:07:47.972Z,25.23
2022-09-26T01:10:16.434Z,24.30
2022-09-26T01:12:44.621Z,24.67
2022-09-26T01:15:12.859Z,23.87
2022-09-26T01:17:43.714Z,24.67
2022-09-26T01:20:26.537Z,21.53
2022-09-26T01:23:21.866Z,22.03
2022-09-26T01:26:19.024Z,24.20
2022-09-26T01:29:03.203Z,23.77
2022-09-26T01:31:42.944Z,24.43
2022-09-26T01:34:18.750Z,26.07
2022-09-26T01:37:01.255Z,25.13
2022-09-26T01:39:53.166Z,23.50
2022-09-26T01:42:27.927Z,23.30
2022-09-26T01:45:01.017Z,25.03
2022-09-26T01:47:41.019Z,23.00
2022-09-26T01:50:16.355Z,24.50
2022-09-26T01:52:48.967Z,24.57
2022-09-26T01:55:22.615Z,27.70
2022-09-26T01:57:54.287Z,26.03
2022-09-26T02:00:22.301Z,24.60
2022-09-26T02:02:51.978Z,22.57
2022-09-26T02:05:25.328Z,22.57
2022-09-26T02:07:57.308Z,23.30
2022-09-26T02:10:29.545Z,25.03
2022-09-26T02:13:02.417Z,22.30
2022-09-26T02:15:34.658Z,21.33
2022-09-26T02:18:13.657Z,27.23
2022-09-26T02:20:46.822Z,24.13
2022-09-26T02:23:14.795Z,22.53
2022-09-26T02:25:42.893Z,24.13
2022-09-26T02:28:10.953Z,25.30
2022-09-26T02:30:40.194Z,23.33
2022-09-26T02:33:09.673Z,23.20
2022-09-26T02:35:55.773Z,30.13
2022-09-26T02:38:25.117Z,26.53
2022-09-26T02:41:02.185Z,23.90
2022-09-26T02:43:45.085Z,31.33
2022-09-26T02:46:28.755Z,26.30
2022-09-26T02:49:09.878Z,27.17
2022-09-26T02:52:01.154Z,26.60
2022-09-26T02:54:35.926Z,26.37
2022-09-26T02:57:18.260Z,26.23
2022-09-26T02:59:51.229Z,27.83
2022-09-26T03:02:22.501Z,26.30
2022-09-26T03:04:55.924Z,27.43
2022-09-26T03:07:31.713Z,26.60
2022-09-26T03:10:03.781Z,26.73
2022-09-26T03:12:33.913Z,29.53
2022-09-26T03:15:04.148Z,27.87
2022-09-26T03:17:34.295Z,28.77
2022-09-26T03:20:07.814Z,27.57
2022-09-26T03:22:36.058Z,26.70
2022-09-26T03:25:06.435Z,33.17
2022-09-26T03:27:36.454Z,28.00
2022-09-26T03:30:05.923Z,30.10
2022-09-26T03:32:33.867Z,26.50
2022-09-26T03:35:03.175Z,24.80
2022-09-26T03:37:32.519Z,25.60
2022-09-26T03:40:00.526Z,25.70
2022-09-26T03:42:28.796Z,28.40
2022-09-26T03:44:57.054Z,26.53
2022-09-26T03:47:25.018Z,27.13
2022-09-26T03:49:52.999Z,28.90
2022-09-26T03:52:22.709Z,27.57
2022-09-26T03:54:50.725Z,27.93
2022-09-26T03:57:18.862Z,28.43
2022-09-26T03:59:47.198Z,24.77
2022-09-26T04:02:16.694Z,28.33
2022-09-26T04:04:44.693Z,28.50
2022-09-26T04:07:12.697Z,27.57
2022-09-26T04:09:42.342Z,24.77
2022-09-26T04:12:10.291Z,28.43
2022-09-26T04:14:38.353Z,26.60
2022-09-26T04:17:06.366Z,32.97
2022-09-26T04:19:34.310Z,28.77
2022-09-26T04:22:02.286Z,27.67
2022-09-26T04:24:30.309Z,24.47
2022-09-26T04:26:59.585Z,27.60
2022-09-26T04:29:27.777Z,29.83
2022-09-26T04:31:55.844Z,34.63
2022-09-26T04:34:27.315Z,26.27
2022-09-26T04:36:56.288Z,27.30
2022-09-26T04:39:24.265Z,30.70
2022-09-26T04:41:53.265Z,24.57
2022-09-26T04:44:22.569Z,26.77
2022-09-26T04:46:50.507Z,29.90
2022-09-26T04:49:18.465Z,28.90
2022-09-26T04:51:46.860Z,27.07
2022-09-26T04:54:16.572Z,25.33
2022-09-26T04:56:44.892Z,27.83
2022-09-26T04:59:12.990Z,29.83
2022-09-26T05:01:42.386Z,26.47
2022-09-26T05:04:10.897Z,29.37
2022-09-26T05:06:39.242Z,26.33
2022-09-26T05:09:07.534Z,27.50
2022-09-26T05:11:35.520Z,25.80
2022-09-26T05:14:04.101Z,28.73
2022-09-26T05:16:32.173Z,29.23
2022-09-26T05:19:01.620Z,29.47
2022-09-26T05:21:29.601Z,28.43
2022-09-26T05:24:15.436Z,26.10
2022-09-26T05:26:47.026Z,31.17
2022-09-26T05:29:16.124Z,30.30
2022-09-26T05:31:44.821Z,29.03
2022-09-26T05:34:19.594Z,30.87
2022-09-26T05:36:48.524Z,28.23
2022-09-26T05:39:42.247Z,28.83
2022-09-26T05:42:10.680Z,30.33
2022-09-26T05:44:39.784Z,28.60
2022-09-26T05:47:08.637Z,32.23
2022-09-26T05:49:38.337Z,30.23
2022-09-26T05:52:06.323Z,31.50
2022-09-26T05:54:34.267Z,30.53
2022-09-26T05:57:02.139Z,28.33
2022-09-26T05:59:30.119Z,35.57
2022-09-26T06:01:58.648Z,32.60
2022-09-26T06:04:26.687Z,31.43
2022-09-26T06:06:56.071Z,28.93
2022-09-26T06:09:24.379Z,35.80
2022-09-26T06:11:52.283Z,31.13
2022-09-26T06:14:21.043Z,28.23
2022-09-26T06:16:48.999Z,32.07
2022-09-26T06:19:22.067Z,29.47
2022-09-26T06:21:51.422Z,31.73
2022-09-26T06:24:20.710Z,27.77
2022-09-26T06:26:48.634Z,30.13
2022-09-26T06:29:16.595Z,31.27
2022-09-26T06:31:45.169Z,28.53
2022-09-26T06:34:13.422Z,32.93
2022-09-26T06:36:41.383Z,32.00
2022-09-26T06:39:09.288Z,29.53
2022-09-26T06:41:38.670Z,30.40
2022-09-26T06:44:06.638Z,33.20
2022-09-26T06:46:34.666Z,32.80
2022-09-26T06:49:02.711Z,33.60
2022-09-26T06:51:31.875Z,35.20
2022-09-26T06:54:00.485Z,41.53
2022-09-26T06:56:28.514Z,34.60
2022-09-26T06:58:57.941Z,33.57
2022-09-26T07:01:26.100Z,32.80
2022-09-26T07:03:54.393Z,35.53
2022-09-26T07:06:22.606Z,31.70
2022-09-26T07:09:02.341Z,32.20
2022-09-26T07:11:50.566Z,27.33
2022-09-26T07:14:22.271Z,29.87
2022-09-26T07:16:51.052Z,34.27
2022-09-26T07:19:19.073Z,31.40
2022-09-26T07:21:47.372Z,32.20
2022-09-26T07:24:15.313Z,30.47
2022-09-26T07:26:43.446Z,28.77
2022-09-26T07:29:12.437Z,28.37
2022-09-26T07:31:42.025Z,28.10
2022-09-26T07:34:14.595Z,28.73
2022-09-26T07:36:47.513Z,23.47
2022-09-26T07:39:15.715Z,30.27
2022-09-26T07:41:46.003Z,27.20
2022-09-26T07:47:21.889Z,26.27
2022-09-26T07:50:07.385Z,20.63
2022-09-26T07:52:35.349Z,24.83
2022-09-26T07:55:03.356Z,24.43
2022-09-26T07:57:35.512Z,25.47
2022-09-26T08:00:03.829Z,27.70
2022-09-26T08:02:35.652Z,25.17
2022-09-26T08:05:05.070Z,25.97
2022-09-26T08:07:35.422Z,25.37
2022-09-26T08:10:04.153Z,24.07
2022-09-26T08:12:36.888Z,26.07
2022-09-26T08:15:06.237Z,30.03
2022-09-26T08:17:36.328Z,24.80
2022-09-26T08:20:05.012Z,26.53
2022-09-26T08:22:33.442Z,23.07
2022-09-26T08:25:01.439Z,23.93
2022-09-26T08:27:33.604Z,23.63
2022-09-26T08:30:03.216Z,21.73
2022-09-26T08:32:32.461Z,22.43
2022-09-26T08:35:01.873Z,26.50
2022-09-26T08:37:31.177Z,24.83
2022-09-26T08:40:00.837Z,23.67
2022-09-26T08:42:44.257Z,23.07
2022-09-26T08:45:49.207Z,22.90
2022-09-26T08:48:36.626Z,25.17
2022-09-26T08:51:16.473Z,23.20
2022-09-26T08:53:49.525Z,23.83
2022-09-26T08:56:22.270Z,21.60
2022-09-26T08:58:53.641Z,24.20
2022-09-26T09:01:27.308Z,23.70
2022-09-26T09:04:02.342Z,26.17
2022-09-26T09:06:32.465Z,25.00
2022-09-26T09:09:00.577Z,22.97
2022-09-26T09:11:52.328Z,23.13
2022-09-26T09:14:43.061Z,22.13
2022-09-26T09:17:23.036Z,24.23
2022-09-26T09:20:00.413Z,22.87
2022-09-26T09:22:52.059Z,21.27
2022-09-26T09:25:24.330Z,22.07
2022-09-26T09:28:09.821Z,18.00
2022-09-26T09:30:42.684Z,19.00
2022-09-26T09:33:15.994Z,18.73
2022-09-26T09:35:47.905Z,20.90
2022-09-26T09:38:20.583Z,23.73
2022-09-26T09:40:55.362Z,19.03
2022-09-26T09:43:29.710Z,17.30
2022-09-26T09:46:04.149Z,17.60
2022-09-26T09:48:32.376Z,16.83
2022-09-26T09:51:13.305Z,14.50
2022-09-26T09:53:57.571Z,14.43
2022-09-26T09:56:34.824Z,15.00
2022-09-26T09:59:17.096Z,11.17
2022-09-26T10:01:48.628Z,12.13
2022-09-26T10:04:30.735Z,12.90
2022-09-26T10:06:59.808Z,13.53
2022-09-26T10:09:35.195Z,11.47
2022-09-26T10:12:14.103Z,10.63
2022-09-26T10:14:47.408Z,13.57
2022-09-26T10:17:19.533Z,12.43
2022-09-26T10:19:48.376Z,14.03
2022-09-26T10:22:25.123Z,13.10
2022-09-26T10:25:01.789Z,12.80
2022-09-26T10:27:37.728Z,10.37
2022-09-26T10:30:21.715Z,12.27
2022-09-26T10:32:56.422Z,13.13
2022-09-26T10:35:28.679Z,11.37
2022-09-26T10:38:01.771Z,8.80
2022-09-26T10:40:46.469Z,10.07
2022-09-26T10:43:23.443Z,12.60
2022-09-26T10:45:54.919Z,12.10
2022-09-26T10:48:28.782Z,11.43
2022-09-26T10:51:01.863Z,11.80
2022-09-26T10:53:37.035Z,11.50
2022-09-26T10:56:12.042Z,12.77
2022-09-26T10:58:47.128Z,10.67
2022-09-26T11:01:26.874Z,10.90
2022-09-26T11:03:56.951Z,9.87
2022-09-26T11:06:31.934Z,8.03
2022-09-26T11:09:03.065Z,6.60
2022-09-26T11:11:37.459Z,7.57
2022-09-26T11:14:07.617Z,7.33
2022-09-26T11:16:50.999Z,7.27
2022-09-26T11:19:32.410Z,7.87
2022-09-26T11:22:08.182Z,6.80
2022-09-26T11:24:46.015Z,6.47
2022-09-26T11:27:23.769Z,7.53
2022-09-26T11:29:56.210Z,7.47
2022-09-26T11:32:29.906Z,10.17
2022-09-26T11:35:03.196Z,7.73
2022-09-26T11:38:08.818Z,7.77
2022-09-26T11:41:03.482Z,8.80
2022-09-26T11:43:53.806Z,7.10
2022-09-26T11:46:38.544Z,8.83
2022-09-26T11:49:44.584Z,7.70
2022-09-26T11:52:29.627Z,11.53
2022-09-26T11:55:14.491Z,9.50
2022-09-26T11:57:49.249Z,10.97
2022-09-26T12:00:27.399Z,10.23
2022-09-26T12:03:37.094Z,8.87
2022-09-26T12:06:19.273Z,10.50
2022-09-26T12:09:03.445Z,9.33
2022-09-26T12:11:38.522Z,10.37
2022-09-26T12:14:22.773Z,8.00
2022-09-26T12:16:58.672Z,9.73
2022-09-26T12:19:34.641Z,8.47
2022-09-26T12:22:26.922Z,8.85
2022-09-26T12:25:16.567Z,9.03
2022-09-26T12:27:57.630Z,8.70
2022-09-26T12:30:27.950Z,7.05
2022-09-26T12:33:21.473Z,9.00
2022-09-26T12:35:55.797Z,7.68
2022-09-26T12:38:46.589Z,9.05
2022-09-26T12:41:27.381Z,7.55
2022-09-26T12:44:28.493Z,6.37
2022-09-26T12:47:13.129Z,6.83
2022-09-26T12:50:09.228Z,5.27
2022-09-26T12:53:01.577Z,4.63
2022-09-26T12:55:36.498Z,4.23
2022-09-26T12:58:22.136Z,3.43
2022-09-26T13:00:59.966Z,6.33
2022-09-26T13:03:58.661Z,5.83
2022-09-26T13:06:48.907Z,3.88
2022-09-26T13:09:36.091Z,4.10
2022-09-26T13:12:16.797Z,3.40
2022-09-26T13:15:00.819Z,4.68
2022-09-26T13:17:33.785Z,3.53
2022-09-26T13:20:06.744Z,3.65
2022-09-26T13:22:42.433Z,2.40
2022-09-26T13:25:17.772Z,5.78
2022-09-26T13:27:52.320Z,2.53
2022-09-26T13:30:24.315Z,2.25
2022-09-26T13:32:58.725Z,2.25
2022-09-26T13:35:28.492Z,2.88
2022-09-26T13:38:11.748Z,1.90
2022-09-26T13:40:46.771Z,2.72
2022-09-26T13:43:28.189Z,6.00
2022-09-26T13:46:06.207Z,2.72
2022-09-26T13:48:40.521Z,4.97
2022-09-26T13:51:19.263Z,3.22
2022-09-26T13:53:57.633Z,2.42
2022-09-26T13:56:48.367Z,10.85
2022-09-26T13:59:54.364Z,4.15
2022-09-26T14:02:28.397Z,4.68
2022-09-26T14:05:46.837Z,2.20
2022-09-26T14:08:48.857Z,2.70
2022-09-26T14:11:27.706Z,2.47
2022-09-26T14:14:24.742Z,2.88
2022-09-26T14:16:54.797Z,5.03
2022-09-26T14:19:35.668Z,5.88
2022-09-26T14:22:05.730Z,3.05
2022-09-26T14:24:37.057Z,4.35
2022-09-26T14:27:37.816Z,4.75
2022-09-26T14:30:26.528Z,4.47
2022-09-26T14:33:02.177Z,3.72
2022-09-26T14:35:32.579Z,3.03
2022-09-26T14:38:02.811Z,4.60
2022-09-26T14:40:34.556Z,4.13
2022-09-26T14:43:12.875Z,5.70
2022-09-26T14:45:49.758Z,3.80
2022-09-26T14:48:32.160Z,3.30
2022-09-26T14:51:04.639Z,3.00
2022-09-26T14:53:40.951Z,3.30
2022-09-26T14:56:12.551Z,4.23
2022-09-26T14:58:52.459Z,4.63
2022-09-26T15:01:25.813Z,5.70
2022-09-26T15:04:03.955Z,3.80
2022-09-26T15:06:39.759Z,3.23
2022-09-26T15:09:11.443Z,4.00
2022-09-26T15:11:44.480Z,4.20
2022-09-26T15:14:26.976Z,4.07
2022-09-26T15:16:56.796Z,7.20
2022-09-26T15:19:28.811Z,4.83
2022-09-26T15:22:00.292Z,4.33
2022-09-26T15:24:30.147Z,4.17
2022-09-26T15:27:03.643Z,3.73
2022-09-26T15:29:32.962Z,4.20
2022-09-26T15:32:02.383Z,5.60
2022-09-26T15:34:36.890Z,6.80
2022-09-26T15:37:16.340Z,5.47
2022-09-26T15:39:44.574Z,4.80
2022-09-26T15:42:41.170Z,8.03
2022-09-26T15:45:27.459Z,5.73
2022-09-26T15:47:56.376Z,5.23
2022-09-26T15:50:28.695Z,6.07
2022-09-26T15:53:03.066Z,10.73
2022-09-26T15:55:36.954Z,12.20
2022-09-26T15:58:07.258Z,9.17
2022-09-26T16:00:41.027Z,10.27
2022-09-26T16:03:38.788Z,9.23
2022-09-26T16:06:26.980Z,7.17
2022-09-26T16:09:00.389Z,8.40
2022-09-26T16:11:29.292Z,12.33
2022-09-26T16:13:58.191Z,14.03
2022-09-26T16:16:32.137Z,15.93
2022-09-26T16:19:03.465Z,12.83
2022-09-26T16:21:34.069Z,26.97
2022-09-26T16:24:22.325Z,19.67
2022-09-26T16:26:51.783Z,13.73
2022-09-26T16:29:31.350Z,14.57
2022-09-26T16:32:01.218Z,10.63
2022-09-26T16:34:29.903Z,11.90
2022-09-26T16:36:58.775Z,16.77
2022-09-26T16:39:29.117Z,11.70
2022-09-26T16:42:02.812Z,13.40
2022-09-26T16:44:36.224Z,16.83
2022-09-26T16:47:09.064Z,15.40
2022-09-26T16:49:46.750Z,17.60
2022-09-26T16:52:29.017Z,18.30
2022-09-26T16:54:58.929Z,21.83
2022-09-26T16:57:29.372Z,14.03
2022-09-26T17:00:15.093Z,11.07
2022-09-26T17:02:44.523Z,7.57
2022-09-26T17:05:18.573Z,6.20
2022-09-26T17:07:47.257Z,7.10
2022-09-26T17:10:16.113Z,18.13
2022-09-26T17:12:50.594Z,20.60
2022-09-26T17:15:23.465Z,14.17
2022-09-26T17:17:53.765Z,14.40
2022-09-26T17:20:23.646Z,10.00
2022-09-26T17:22:51.838Z,22.80
2022-09-26T17:25:20.015Z,15.43
2022-09-26T17:27:53.649Z,16.50
2022-09-26T17:30:21.985Z,13.03
2022-09-26T17:32:54.418Z,12.13
2022-09-26T17:35:26.005Z,15.77
2022-09-26T17:37:54.132Z,17.83
2022-09-26T17:40:25.084Z,12.60
2022-09-26T17:42:55.258Z,14.23
2022-09-26T17:45:28.549Z,13.17
2022-09-26T17:48:00.160Z,10.33
2022-09-26T17:50:31.428Z,9.23
2022-09-26T17:53:01.928Z,8.17
2022-09-26T17:55:30.976Z,10.47
2022-09-26T17:57:59.783Z,9.50
2022-09-26T18:00:31.902Z,11.40
2022-09-26T18:03:04.219Z,8.97
2022-09-26T18:05:34.165Z,12.10
2022-09-26T18:08:07.173Z,7.87
2022-09-26T18:10:39.399Z,11.20
2022-09-26T18:13:13.368Z,9.50
2022-09-26T18:15:42.143Z,9.70
2022-09-26T18:18:17.735Z,11.67
2022-09-26T18:20:46.252Z,9.10
2022-09-26T18:23:18.371Z,9.37
2022-09-26T18:25:47.463Z,12.90
2022-09-26T18:28:19.964Z,10.73
2022-09-26T18:30:49.218Z,10.63
2022-09-26T18:33:19.651Z,10.40
2022-09-26T18:35:49.319Z,12.93
2022-09-26T18:38:17.512Z,11.77
2022-09-26T18:40:51.647Z,8.20
2022-09-26T18:43:22.392Z,11.80
2022-09-26T18:45:51.072Z,10.50
2022-09-26T18:48:24.599Z,9.27
2022-09-26T18:50:53.428Z,9.87
2022-09-26T18:53:23.740Z,12.13
2022-09-26T18:56:09.525Z,10.17
2022-09-26T18:58:38.099Z,12.03
2022-09-26T19:01:07.988Z,14.17
2022-09-26T19:03:39.897Z,16.63
2022-09-26T19:06:11.734Z,13.97
2022-09-26T19:08:41.108Z,16.37
2022-09-26T19:11:13.247Z,14.57
2022-09-26T19:13:41.574Z,17.03
2022-09-26T19:16:10.635Z,18.00
2022-09-26T19:18:40.751Z,20.97
2022-09-26T19:21:16.878Z,18.27
2022-09-26T19:23:46.919Z,12.43
2022-09-26T19:26:24.846Z,19.17
2022-09-26T19:28:53.282Z,15.87
2022-09-26T19:31:21.492Z,14.27
2022-09-26T19:33:51.402Z,22.93
2022-09-26T19:36:21.105Z,13.40
2022-09-26T19:38:49.120Z,18.07
2022-09-26T19:41:17.259Z,20.23
2022-09-26T19:43:45.344Z,18.13
2022-09-26T19:46:18.907Z,15.47
2022-09-26T19:48:46.887Z,16.23
2022-09-26T19:51:18.696Z,16.17
2022-09-26T19:53:46.631Z,15.00
2022-09-26T19:56:14.625Z,16.60
2022-09-26T19:58:42.824Z,21.57
2022-09-26T20:01:17.149Z,15.10
2022-09-26T20:03:45.317Z,18.07
2022-09-26T20:06:17.240Z,19.53
2022-09-26T20:08:45.235Z,18.80
2022-09-26T20:11:13.532Z,17.97
2022-09-26T20:13:59.225Z,19.70
2022-09-26T20:16:28.281Z,22.57
2022-09-26T20:18:57.637Z,22.60
2022-09-26T20:21:29.504Z,18.63
2022-09-26T20:24:00.356Z,19.67
2022-09-26T20:26:29.859Z,15.37
2022-09-26T20:28:58.163Z,15.33
2022-09-26T20:31:27.872Z,17.83
2022-09-26T20:33:56.930Z,14.17
2022-09-26T20:36:28.912Z,17.80
2022-09-26T20:39:00.440Z,19.40
2022-09-26T20:41:32.967Z,17.03
2022-09-26T20:44:05.520Z,21.70
2022-09-26T20:46:36.915Z,18.63
2022-09-26T20:49:08.612Z,16.83
2022-09-26T20:51:38.448Z,18.50
2022-09-26T20:54:07.122Z,18.70
2022-09-26T20:56:35.282Z,17.00
2022-09-26T20:59:03.298Z,18.57
2022-09-26T21:01:31.333Z,21.73
2022-09-26T21:03:59.360Z,20.10
2022-09-26T21:06:32.825Z,17.73
2022-09-26T21:09:02.675Z,20.90
2022-09-26T21:11:30.701Z,17.60
2022-09-26T21:13:58.594Z,23.67
2022-09-26T21:16:26.986Z,22.67
2022-09-26T21:18:55.103Z,25.40
2022-09-26T21:21:25.464Z,27.00
2022-09-26T21:23:55.015Z,28.57
2022-09-26T21:26:26.198Z,23.87
2022-09-26T21:28:55.972Z,30.97
2022-09-26T21:31:26.913Z,30.93
2022-09-26T21:33:56.402Z,26.37
2022-09-26T21:36:26.073Z,27.47
2022-09-26T21:38:56.820Z,26.37
2022-09-26T21:41:26.368Z,23.37
2022-09-26T21:43:58.514Z,22.13
2022-09-26T21:46:27.140Z,27.00
2022-09-26T21:48:55.993Z,29.33
2022-09-26T21:51:28.332Z,22.10
2022-09-26T21:54:00.162Z,27.83
2022-09-26T21:56:34.070Z,22.63
2022-09-26T21:59:02.340Z,22.67
2022-09-26T22:01:30.393Z,25.70
2022-09-26T22:03:58.507Z,27.27
2022-09-26T22:06:27.050Z,21.63
2022-09-26T22:08:55.041Z,22.63
2022-09-26T22:11:22.960Z,20.90
2022-09-26T22:13:52.442Z,25.87
2022-09-26T22:16:20.396Z,26.77
2022-09-26T22:18:48.462Z,19.90
2022-09-26T22:21:16.402Z,20.50
2022-09-26T22:23:44.483Z,20.43
2022-09-26T22:26:12.355Z,18.77
2022-09-26T22:28:40.327Z,16.77
2022-09-26T22:31:09.832Z,19.97
2022-09-26T22:33:37.798Z,18.73
2022-09-26T22:36:06.174Z,19.47
2022-09-26T22:38:35.967Z,21.20
2022-09-26T22:41:06.129Z,12.87
2022-09-26T22:43:35.498Z,13.47
2022-09-26T22:46:04.560Z,14.73
2022-09-26T22:48:35.722Z,16.27
2022-09-26T22:51:03.913Z,14.70
2022-09-26T22:53:33.071Z,15.60
2022-09-26T22:56:05.250Z,16.03
2022-09-26T22:58:36.634Z,16.87
2022-09-26T23:01:05.902Z,17.73
2022-09-26T23:03:35.667Z,15.37
2022-09-26T23:06:04.903Z,13.80
2022-09-26T23:08:34.314Z,17.10
2022-09-26T23:11:03.633Z,13.33
2022-09-26T23:13:32.959Z,18.00
2022-09-26T23:16:05.254Z,16.93
2022-09-26T23:18:34.780Z,17.40
2022-09-26T23:21:08.562Z,18.37
2022-09-26T23:23:37.159Z,15.10
2022-09-26T23:26:06.614Z,15.13
2022-09-26T23:28:35.019Z,14.73
2022-09-26T23:31:06.956Z,13.53
2022-09-26T23:33:35.117Z,14.37
2022-09-26T23:36:03.547Z,15.00
2022-09-26T23:38:33.302Z,13.97
2022-09-26T23:41:01.365Z,13.67
2022-09-26T23:43:29.490Z,17.87
2022-09-26T23:45:57.568Z,17.50
2022-09-26T23:48:25.563Z,17.63
2022-09-26T23:50:53.517Z,18.43
2022-09-26T23:53:22.142Z,16.43
2022-09-26T23:55:53.105Z,16.57
2022-09-26T23:58:21.109Z,14.63
